sensor_id;sensor_type;location;lat;lon;timestamp;temperature;humidity
23769;DHT22;12064;50.890;5.424;2024-02-23T00:06:08;15.60;99.90
23769;DHT22;12064;50.890;5.424;2024-02-23T00:14:59;15.50;99.90
23769;DHT22;12064;50.890;5.424;2024-02-23T00:23:50;15.50;99.90
23769;DHT22;12064;50.890;5.424;2024-02-23T00:32:40;15.50;99.90
23769;DHT22;12064;50.890;5.424;2024-02-23T00:41:31;15.40;99.90
23769;DHT22;12064;50.890;5.424;2024-02-23T00:50:22;15.40;99.90
23769;DHT22;12064;50.890;5.424;2024-02-23T00:59:14;15.40;99.90
23769;DHT22;12064;50.890;5.424;2024-02-23T01:08:05;15.40;99.90
23769;DHT22;12064;50.890;5.424;2024-02-23T01:16:55;15.40;99.90
23769;DHT22;12064;50.890;5.424;2024-02-23T01:25:46;15.40;99.90
23769;DHT22;12064;50.890;5.424;2024-02-23T01:34:37;15.40;99.90
23769;DHT22;12064;50.890;5.424;2024-02-23T01:43:27;15.40;99.90
23769;DHT22;12064;50.890;5.424;2024-02-23T01:52:18;15.30;99.90
23769;DHT22;12064;50.890;5.424;2024-02-23T02:01:09;15.30;99.90
23769;DHT22;12064;50.890;5.424;2024-02-23T02:10:00;15.30;99.90
23769;DHT22;12064;50.890;5.424;2024-02-23T02:18:51;15.30;99.90
23769;DHT22;12064;50.890;5.424;2024-02-23T02:27:41;15.30;99.90
23769;DHT22;12064;50.890;5.424;2024-02-23T02:36:32;15.20;99.90
23769;DHT22;12064;50.890;5.424;2024-02-23T02:45:23;15.20;99.90
23769;DHT22;12064;50.890;5.424;2024-02-23T02:54:14;15.20;99.90
23769;DHT22;12064;50.890;5.424;2024-02-23T03:03:05;15.20;99.90
23769;DHT22;12064;50.890;5.424;2024-02-23T03:11:56;15.20;99.90
23769;DHT22;12064;50.890;5.424;2024-02-23T03:20:46;15.10;99.90
23769;DHT22;12064;50.890;5.424;2024-02-23T03:29:38;15.10;99.90
23769;DHT22;12064;50.890;5.424;2024-02-23T03:38:29;15.10;99.90
23769;DHT22;12064;50.890;5.424;2024-02-23T03:47:20;15.10;99.90
23769;DHT22;12064;50.890;5.424;2024-02-23T03:56:11;15.10;99.90
23769;DHT22;12064;50.890;5.424;2024-02-23T04:05:02;15.10;99.90
23769;DHT22;12064;50.890;5.424;2024-02-23T04:13:52;15.10;99.90
23769;DHT22;12064;50.890;5.424;2024-02-23T04:22:44;15.10;99.90
23769;DHT22;12064;50.890;5.424;2024-02-23T04:31:38;15.10;99.90
23769;DHT22;12064;50.890;5.424;2024-02-23T04:40:29;15.00;99.90
23769;DHT22;12064;50.890;5.424;2024-02-23T04:49:19;15.00;99.90
23769;DHT22;12064;50.890;5.424;2024-02-23T04:58:10;15.00;99.90
23769;DHT22;12064;50.890;5.424;2024-02-23T05:07:02;15.00;99.90
23769;DHT22;12064;50.890;5.424;2024-02-23T05:15:55;15.00;99.90
23769;DHT22;12064;50.890;5.424;2024-02-23T05:24:47;15.00;99.90
23769;DHT22;12064;50.890;5.424;2024-02-23T05:33:38;15.00;99.90
23769;DHT22;12064;50.890;5.424;2024-02-23T05:42:29;15.00;99.90
23769;DHT22;12064;50.890;5.424;2024-02-23T05:51:19;15.00;99.90
23769;DHT22;12064;50.890;5.424;2024-02-23T06:00:10;15.00;99.90
23769;DHT22;12064;50.890;5.424;2024-02-23T06:09:01;15.00;99.90
23769;DHT22;12064;50.890;5.424;2024-02-23T06:17:53;15.00;99.90
23769;DHT22;12064;50.890;5.424;2024-02-23T06:26:44;14.90;99.90
23769;DHT22;12064;50.890;5.424;2024-02-23T06:35:36;15.00;99.90
23769;DHT22;12064;50.890;5.424;2024-02-23T06:44:26;14.90;99.90
23769;DHT22;12064;50.890;5.424;2024-02-23T06:53:17;15.00;99.90
23769;DHT22;12064;50.890;5.424;2024-02-23T07:02:08;14.90;99.90
23769;DHT22;12064;50.890;5.424;2024-02-23T07:10:58;14.90;99.90
23769;DHT22;12064;50.890;5.424;2024-02-23T07:19:49;14.90;99.90
23769;DHT22;12064;50.890;5.424;2024-02-23T07:28:41;14.90;99.90
23769;DHT22;12064;50.890;5.424;2024-02-23T07:37:31;14.90;99.90
23769;DHT22;12064;50.890;5.424;2024-02-23T07:46:22;14.90;99.90
23769;DHT22;12064;50.890;5.424;2024-02-23T07:55:13;14.80;99.90
23769;DHT22;12064;50.890;5.424;2024-02-23T08:04:04;14.80;99.90
23769;DHT22;12064;50.890;5.424;2024-02-23T08:12:54;14.90;99.90
23769;DHT22;12064;50.890;5.424;2024-02-23T08:21:45;14.90;99.90
23769;DHT22;12064;50.890;5.424;2024-02-23T08:30:36;14.90;99.90
23769;DHT22;12064;50.890;5.424;2024-02-23T08:39:26;14.90;99.90
23769;DHT22;12064;50.890;5.424;2024-02-23T08:48:17;14.90;99.90
23769;DHT22;12064;50.890;5.424;2024-02-23T08:57:08;14.90;99.90
23769;DHT22;12064;50.890;5.424;2024-02-23T09:05:59;15.00;99.90
23769;DHT22;12064;50.890;5.424;2024-02-23T09:14:49;15.00;99.90
23769;DHT22;12064;50.890;5.424;2024-02-23T09:23:40;15.00;99.90
23769;DHT22;12064;50.890;5.424;2024-02-23T09:32:31;15.00;99.90
23769;DHT22;12064;50.890;5.424;2024-02-23T09:41:23;15.00;99.90
23769;DHT22;12064;50.890;5.424;2024-02-23T09:50:15;15.10;99.90
23769;DHT22;12064;50.890;5.424;2024-02-23T09:59:08;15.10;99.90
23769;DHT22;12064;50.890;5.424;2024-02-23T10:07:59;15.20;99.90
23769;DHT22;12064;50.890;5.424;2024-02-23T10:16:49;15.10;99.90
23769;DHT22;12064;50.890;5.424;2024-02-23T10:25:44;15.20;99.90
23769;DHT22;12064;50.890;5.424;2024-02-23T10:34:36;15.30;99.90
23769;DHT22;12064;50.890;5.424;2024-02-23T10:43:39;15.30;99.90
23769;DHT22;12064;50.890;5.424;2024-02-23T10:52:32;15.40;99.90
23769;DHT22;12064;50.890;5.424;2024-02-23T11:01:24;15.40;99.90
23769;DHT22;12064;50.890;5.424;2024-02-23T11:10:15;15.60;99.90
23769;DHT22;12064;50.890;5.424;2024-02-23T11:19:08;15.70;99.90
23769;DHT22;12064;50.890;5.424;2024-02-23T11:28:01;15.70;99.90
23769;DHT22;12064;50.890;5.424;2024-02-23T11:36:52;15.70;99.90
23769;DHT22;12064;50.890;5.424;2024-02-23T11:45:47;15.70;99.90
23769;DHT22;12064;50.890;5.424;2024-02-23T11:54:38;15.70;99.90
23769;DHT22;12064;50.890;5.424;2024-02-23T12:03:31;15.80;99.90
23769;DHT22;12064;50.890;5.424;2024-02-23T12:12:22;15.80;99.90
23769;DHT22;12064;50.890;5.424;2024-02-23T12:21:13;15.80;99.90
23769;DHT22;12064;50.890;5.424;2024-02-23T12:30:04;15.90;99.90
23769;DHT22;12064;50.890;5.424;2024-02-23T12:38:55;16.00;99.90
23769;DHT22;12064;50.890;5.424;2024-02-23T12:47:46;16.00;99.90
23769;DHT22;12064;50.890;5.424;2024-02-23T12:56:36;16.10;99.90
23769;DHT22;12064;50.890;5.424;2024-02-23T13:05:27;16.10;99.90
23769;DHT22;12064;50.890;5.424;2024-02-23T13:14:18;16.20;99.90
23769;DHT22;12064;50.890;5.424;2024-02-23T13:23:12;16.10;99.90
23769;DHT22;12064;50.890;5.424;2024-02-23T13:32:03;16.10;99.90
23769;DHT22;12064;50.890;5.424;2024-02-23T13:40:53;16.10;99.90
23769;DHT22;12064;50.890;5.424;2024-02-23T13:49:44;16.20;99.90
23769;DHT22;12064;50.890;5.424;2024-02-23T13:58:35;16.20;99.90
23769;DHT22;12064;50.890;5.424;2024-02-23T14:07:25;16.20;99.90
23769;DHT22;12064;50.890;5.424;2024-02-23T14:16:16;16.20;99.90
23769;DHT22;12064;50.890;5.424;2024-02-23T14:25:07;16.10;99.90
23769;DHT22;12064;50.890;5.424;2024-02-23T14:33:58;16.10;99.90
23769;DHT22;12064;50.890;5.424;2024-02-23T14:42:48;16.10;99.90
23769;DHT22;12064;50.890;5.424;2024-02-23T14:51:39;16.20;99.90
23769;DHT22;12064;50.890;5.424;2024-02-23T15:00:33;16.10;99.90
23769;DHT22;12064;50.890;5.424;2024-02-23T15:09:23;16.20;99.90
23769;DHT22;12064;50.890;5.424;2024-02-23T15:18:14;16.20;99.90
23769;DHT22;12064;50.890;5.424;2024-02-23T15:27:05;16.20;99.90
23769;DHT22;12064;50.890;5.424;2024-02-23T15:35:56;16.20;99.90
23769;DHT22;12064;50.890;5.424;2024-02-23T15:44:47;16.10;99.90
23769;DHT22;12064;50.890;5.424;2024-02-23T15:53:38;16.10;99.90
23769;DHT22;12064;50.890;5.424;2024-02-23T16:02:29;16.10;99.90
23769;DHT22;12064;50.890;5.424;2024-02-23T16:11:19;16.10;99.90
23769;DHT22;12064;50.890;5.424;2024-02-23T16:20:10;16.10;99.90
23769;DHT22;12064;50.890;5.424;2024-02-23T16:29:01;16.10;99.90
23769;DHT22;12064;50.890;5.424;2024-02-23T16:37:52;16.10;99.90
23769;DHT22;12064;50.890;5.424;2024-02-23T16:46:42;16.10;99.90
23769;DHT22;12064;50.890;5.424;2024-02-23T16:55:33;16.10;99.90
23769;DHT22;12064;50.890;5.424;2024-02-23T17:04:24;16.10;99.90
23769;DHT22;12064;50.890;5.424;2024-02-23T17:13:15;16.00;99.90
23769;DHT22;12064;50.890;5.424;2024-02-23T17:22:09;16.00;99.90
23769;DHT22;12064;50.890;5.424;2024-02-23T17:31:00;16.00;99.90
23769;DHT22;12064;50.890;5.424;2024-02-23T17:39:51;16.00;99.90
23769;DHT22;12064;50.890;5.424;2024-02-23T17:48:42;15.90;99.90
23769;DHT22;12064;50.890;5.424;2024-02-23T17:57:33;15.90;99.90
23769;DHT22;12064;50.890;5.424;2024-02-23T18:06:23;15.90;99.90
23769;DHT22;12064;50.890;5.424;2024-02-23T18:15:14;15.80;99.90
23769;DHT22;12064;50.890;5.424;2024-02-23T18:24:05;15.80;99.90
23769;DHT22;12064;50.890;5.424;2024-02-23T18:32:57;15.80;99.90
23769;DHT22;12064;50.890;5.424;2024-02-23T18:41:47;15.80;99.90
23769;DHT22;12064;50.890;5.424;2024-02-23T18:50:38;15.80;99.90
23769;DHT22;12064;50.890;5.424;2024-02-23T18:59:29;15.70;99.90
23769;DHT22;12064;50.890;5.424;2024-02-23T19:08:19;15.70;99.90
23769;DHT22;12064;50.890;5.424;2024-02-23T19:17:10;15.60;99.90
23769;DHT22;12064;50.890;5.424;2024-02-23T19:26:01;15.70;99.90
23769;DHT22;12064;50.890;5.424;2024-02-23T19:34:53;15.70;99.90
23769;DHT22;12064;50.890;5.424;2024-02-23T19:43:43;15.70;99.90
23769;DHT22;12064;50.890;5.424;2024-02-23T19:52:34;15.60;99.90
23769;DHT22;12064;50.890;5.424;2024-02-23T20:01:25;15.50;99.90
23769;DHT22;12064;50.890;5.424;2024-02-23T20:10:15;15.50;99.90
23769;DHT22;12064;50.890;5.424;2024-02-23T20:19:08;15.50;99.90
23769;DHT22;12064;50.890;5.424;2024-02-23T20:27:59;15.50;99.90
23769;DHT22;12064;50.890;5.424;2024-02-23T20:36:50;15.50;99.90
23769;DHT22;12064;50.890;5.424;2024-02-23T20:45:40;15.50;99.90
23769;DHT22;12064;50.890;5.424;2024-02-23T20:54:31;15.50;99.90
23769;DHT22;12064;50.890;5.424;2024-02-23T21:03:22;15.50;99.90
23769;DHT22;12064;50.890;5.424;2024-02-23T21:12:13;15.50;99.90
23769;DHT22;12064;50.890;5.424;2024-02-23T21:21:04;15.40;99.90
23769;DHT22;12064;50.890;5.424;2024-02-23T21:29:55;15.40;99.90
23769;DHT22;12064;50.890;5.424;2024-02-23T21:38:47;15.40;99.90
23769;DHT22;12064;50.890;5.424;2024-02-23T21:47:37;15.40;99.90
23769;DHT22;12064;50.890;5.424;2024-02-23T21:56:28;15.40;99.90
23769;DHT22;12064;50.890;5.424;2024-02-23T22:05:19;15.40;99.90
23769;DHT22;12064;50.890;5.424;2024-02-23T22:14:10;15.30;99.90
23769;DHT22;12064;50.890;5.424;2024-02-23T22:23:01;15.40;99.90
23769;DHT22;12064;50.890;5.424;2024-02-23T22:31:53;15.30;99.90
23769;DHT22;12064;50.890;5.424;2024-02-23T22:40:43;15.30;99.90
23769;DHT22;12064;50.890;5.424;2024-02-23T22:49:37;15.30;99.90
23769;DHT22;12064;50.890;5.424;2024-02-23T22:58:28;15.20;99.90
23769;DHT22;12064;50.890;5.424;2024-02-23T23:07:18;15.20;99.90
23769;DHT22;12064;50.890;5.424;2024-02-23T23:16:09;15.30;99.90
23769;DHT22;12064;50.890;5.424;2024-02-23T23:25:00;15.30;99.90
23769;DHT22;12064;50.890;5.424;2024-02-23T23:33:51;15.20;99.90
23769;DHT22;12064;50.890;5.424;2024-02-23T23:42:41;15.20;99.90
23769;DHT22;12064;50.890;5.424;2024-02-23T23:51:32;15.20;99.90
